createdAt,value
2018-05-31T00:00:00.646Z,1004.33
2018-05-31T00:00:41.045Z,1004.32
2018-05-31T00:01:21.459Z,1004.33
2018-05-31T00:02:01.831Z,1004.31
2018-05-31T00:02:42.305Z,1004.33
2018-05-31T00:03:22.636Z,1004.37
2018-05-31T00:04:03.038Z,1004.31
2018-05-31T00:04:43.449Z,1004.35
2018-05-31T00:05:23.876Z,1004.38
2018-05-31T00:06:04.295Z,1004.37
2018-05-31T00:06:44.711Z,1004.37
2018-05-31T00:07:25.100Z,1004.38
2018-05-31T00:08:05.468Z,1004.36
2018-05-31T00:08:45.913Z,1004.32
2018-05-31T00:09:26.227Z,1004.33
2018-05-31T00:10:06.663Z,1004.33
2018-05-31T00:10:47.084Z,1004.31
2018-05-31T00:11:27.469Z,1004.31
2018-05-31T00:12:07.891Z,1004.29
2018-05-31T00:12:48.290Z,1004.29
2018-05-31T00:13:28.646Z,1004.27
2018-05-31T00:14:09.051Z,1004.24
2018-05-31T00:14:49.495Z,1004.25
2018-05-31T00:15:29.875Z,1004.23
2018-05-31T00:16:10.285Z,1004.25
2018-05-31T00:16:50.714Z,1004.24
2018-05-31T00:17:31.121Z,1004.22
2018-05-31T00:18:11.536Z,1004.26
2018-05-31T00:18:51.936Z,1004.23
2018-05-31T00:19:32.341Z,1004.26
2018-05-31T00:20:12.708Z,1004.26
2018-05-31T00:20:53.136Z,1004.24
2018-05-31T00:21:33.541Z,1004.24
2018-05-31T00:22:13.952Z,1004.27
2018-05-31T00:22:54.363Z,1004.27
2018-05-31T00:23:34.842Z,1004.26
2018-05-31T00:24:15.204Z,1004.28
2018-05-31T00:24:55.650Z,1004.26
2018-05-31T00:25:36.026Z,1004.28
2018-05-31T00:26:16.424Z,1004.29
2018-05-31T00:26:56.820Z,1004.23
2018-05-31T00:27:37.298Z,1004.22
2018-05-31T00:28:17.654Z,1004.26
2018-05-31T00:28:58.107Z,1004.26
2018-05-31T00:29:38.478Z,1004.23
2018-05-31T00:30:18.889Z,1004.23
2018-05-31T00:30:59.292Z,1004.2
2018-05-31T00:31:39.717Z,1004.21
2018-05-31T00:32:20.062Z,1004.16
2018-05-31T00:33:00.493Z,1004.15
2018-05-31T00:33:40.882Z,1004.19
2018-05-31T00:34:21.319Z,1004.21
2018-05-31T00:35:01.729Z,1004.2
2018-05-31T00:35:42.164Z,1004.23
2018-05-31T00:36:22.555Z,1004.24
2018-05-31T00:37:02.968Z,1004.31
2018-05-31T00:37:43.366Z,1004.25
2018-05-31T00:38:23.796Z,1004.25
2018-05-31T00:39:04.178Z,1004.28
2018-05-31T00:39:44.590Z,1004.27
2018-05-31T00:40:24.973Z,1004.27
2018-05-31T00:41:05.404Z,1004.26
2018-05-31T00:41:45.799Z,1004.26
2018-05-31T00:42:26.215Z,1004.26
2018-05-31T00:43:06.621Z,1004.26
2018-05-31T00:43:47.031Z,1004.23
2018-05-31T00:44:27.403Z,1004.24
2018-05-31T00:45:07.824Z,1004.21
2018-05-31T00:45:48.221Z,1004.15
2018-05-31T00:46:28.642Z,1004.17
2018-05-31T00:47:09.044Z,1004.17
2018-05-31T00:47:49.435Z,1004.16
2018-05-31T00:48:29.879Z,1004.15
2018-05-31T00:49:10.253Z,1004.15
2018-05-31T00:49:50.623Z,1004.15
2018-05-31T00:50:31.054Z,1004.17
2018-05-31T00:51:11.443Z,1004.19
2018-05-31T00:51:51.847Z,1004.2
2018-05-31T00:52:32.239Z,1004.21
2018-05-31T00:53:12.640Z,1004.23
2018-05-31T00:53:53.064Z,1004.24
2018-05-31T00:54:33.424Z,1004.26
2018-05-31T00:55:13.834Z,1004.32
2018-05-31T00:55:54.241Z,1004.3
2018-05-31T00:56:34.656Z,1004.33
2018-05-31T00:57:15.048Z,1004.33
2018-05-31T00:57:55.445Z,1004.33
2018-05-31T00:58:35.849Z,1004.37
2018-05-31T00:59:16.213Z,1004.35
2018-05-31T00:59:56.644Z,1004.37
2018-05-31T01:00:37.016Z,1004.35
2018-05-31T01:01:17.445Z,1004.38
2018-05-31T01:01:57.852Z,1004.33
2018-05-31T01:02:38.246Z,1004.31
2018-05-31T01:03:18.621Z,1004.29
2018-05-31T01:03:59.072Z,1004.27
2018-05-31T01:04:39.469Z,1004.31
2018-05-31T01:05:19.837Z,1004.29
2018-05-31T01:06:00.301Z,1004.34
2018-05-31T01:06:40.681Z,1004.34
2018-05-31T01:07:21.087Z,1004.33
2018-05-31T01:08:01.497Z,1004.39
2018-05-31T01:08:41.919Z,1004.39
2018-05-31T01:09:22.336Z,1004.4
2018-05-31T01:10:02.741Z,1004.4
2018-05-31T01:10:43.139Z,1004.44
2018-05-31T01:11:23.574Z,1004.41
2018-05-31T01:12:03.965Z,1004.42
2018-05-31T01:12:44.364Z,1004.39
2018-05-31T01:13:24.768Z,1004.42
2018-05-31T01:14:05.149Z,1004.4
2018-05-31T01:14:45.527Z,1004.36
2018-05-31T01:15:25.984Z,1004.33
2018-05-31T01:16:06.360Z,1004.4
2018-05-31T01:16:46.812Z,1004.35
2018-05-31T01:17:27.189Z,1004.33
2018-05-31T01:18:07.608Z,1004.32
2018-05-31T01:18:47.994Z,1004.34
2018-05-31T01:19:28.419Z,1004.33
2018-05-31T01:20:08.812Z,1004.3
2018-05-31T01:20:49.202Z,1004.3
2018-05-31T01:21:29.598Z,1004.26
2018-05-31T01:22:10.035Z,1004.32
2018-05-31T01:22:50.419Z,1004.32
2018-05-31T01:23:30.840Z,1004.29
2018-05-31T01:24:11.249Z,1004.3
2018-05-31T01:24:51.627Z,1004.31
2018-05-31T01:25:32.088Z,1004.33
2018-05-31T01:26:12.419Z,1004.37
2018-05-31T01:26:52.878Z,1004.38
2018-05-31T01:27:33.301Z,1004.49
2018-05-31T01:28:13.701Z,1004.65
2018-05-31T01:28:54.080Z,1004.64
2018-05-31T01:29:34.466Z,1004.72
2018-05-31T01:30:14.879Z,1004.63
2018-05-31T01:30:55.280Z,1004.55
2018-05-31T01:31:35.701Z,1004.49
2018-05-31T01:32:16.084Z,1004.48
2018-05-31T01:32:56.489Z,1004.44
2018-05-31T01:33:36.885Z,1004.4
2018-05-31T01:34:17.292Z,1004.47
2018-05-31T01:36:51.800Z,1004.6
2018-05-31T01:40:39.889Z,1004.5
2018-05-31T01:41:20.215Z,1004.49
2018-05-31T01:42:00.602Z,1004.51
2018-05-31T01:42:41.002Z,1004.51
2018-05-31T01:43:21.402Z,1004.49
2018-05-31T01:44:01.820Z,1004.48
2018-05-31T01:44:42.196Z,1004.49
2018-05-31T01:45:22.600Z,1004.48
2018-05-31T01:46:03.018Z,1004.47
2018-05-31T01:46:43.377Z,1004.49
2018-05-31T01:47:23.780Z,1004.49
2018-05-31T01:48:04.205Z,1004.48
2018-05-31T01:48:44.583Z,1004.46
2018-05-31T01:49:24.993Z,1004.52
2018-05-31T01:50:05.345Z,1004.46
2018-05-31T01:50:45.744Z,1004.45
2018-05-31T01:51:26.137Z,1004.39
2018-05-31T01:52:06.576Z,1004.42
2018-05-31T01:52:46.961Z,1004.43
2018-05-31T01:53:27.339Z,1004.43
2018-05-31T01:54:07.736Z,1004.38
2018-05-31T01:54:48.158Z,1004.38
2018-05-31T01:55:28.558Z,1004.38
2018-05-31T01:56:08.941Z,1004.35
2018-05-31T01:56:49.327Z,1004.36
2018-05-31T01:57:29.716Z,1004.39
2018-05-31T01:58:19.691Z,1004.4
2018-05-31T01:59:06.612Z,1004.41
2018-05-31T01:59:46.955Z,1004.44
2018-05-31T02:00:27.385Z,1004.42
2018-05-31T02:01:07.837Z,1004.46
2018-05-31T02:01:48.235Z,1004.48
2018-05-31T02:02:28.683Z,1004.49
2018-05-31T02:03:21.632Z,1004.53
2018-05-31T02:04:04.880Z,1004.51
2018-05-31T02:04:48.260Z,1004.51
2018-05-31T02:05:44.275Z,1004.51
2018-05-31T02:06:24.677Z,1004.51
2018-05-31T02:07:05.027Z,1004.5
2018-05-31T02:07:45.504Z,1004.5
2018-05-31T02:08:25.912Z,1004.48
2018-05-31T02:09:06.268Z,1004.49
2018-05-31T02:09:46.713Z,1004.46
2018-05-31T02:10:27.132Z,1004.47
2018-05-31T02:11:07.502Z,1004.47
2018-05-31T02:11:47.955Z,1004.45
2018-05-31T02:12:28.342Z,1004.46
2018-05-31T02:13:08.701Z,1004.42
2018-05-31T02:13:49.099Z,1004.42
2018-05-31T02:14:29.488Z,1004.43
2018-05-31T02:15:09.905Z,1004.47
2018-05-31T02:15:50.339Z,1004.41
2018-05-31T02:16:30.765Z,1004.43
2018-05-31T02:17:11.160Z,1004.4
2018-05-31T02:17:51.538Z,1004.46
2018-05-31T02:18:31.952Z,1004.42
2018-05-31T02:19:12.330Z,1004.46
2018-05-31T02:19:52.719Z,1004.42
2018-05-31T02:20:33.122Z,1004.44
2018-05-31T02:21:13.542Z,1004.46
2018-05-31T02:21:53.995Z,1004.44
2018-05-31T02:22:34.393Z,1004.43
2018-05-31T02:23:14.788Z,1004.39
2018-05-31T02:23:55.171Z,1004.35
2018-05-31T02:24:35.596Z,1004.31
2018-05-31T02:25:16.043Z,1004.35
2018-05-31T02:25:56.421Z,1004.31
2018-05-31T02:26:36.836Z,1004.35
2018-05-31T02:27:17.245Z,1004.31
2018-05-31T02:27:57.617Z,1004.31
2018-05-31T02:28:38.019Z,1004.34
2018-05-31T02:29:18.438Z,1004.34
2018-05-31T02:29:58.786Z,1004.32
2018-05-31T02:30:39.210Z,1004.31
2018-05-31T02:31:19.584Z,1004.32
2018-05-31T02:31:59.998Z,1004.3
2018-05-31T02:32:40.423Z,1004.3
2018-05-31T02:33:20.824Z,1004.33
2018-05-31T02:34:01.209Z,1004.35
2018-05-31T02:34:41.619Z,1004.39
2018-05-31T02:35:22.080Z,1004.39
2018-05-31T02:36:02.423Z,1004.44
2018-05-31T02:36:42.843Z,1004.4
2018-05-31T02:37:23.234Z,1004.42
2018-05-31T02:38:03.639Z,1004.38
2018-05-31T02:38:44.107Z,1004.43
2018-05-31T02:39:24.519Z,1004.4
2018-05-31T02:40:04.851Z,1004.42
2018-05-31T02:40:45.277Z,1004.41
2018-05-31T02:41:25.681Z,1004.4
2018-05-31T02:42:06.097Z,1004.38
2018-05-31T02:42:46.517Z,1004.38
2018-05-31T02:43:26.917Z,1004.42
2018-05-31T02:44:07.304Z,1004.41
2018-05-31T02:44:47.723Z,1004.44
2018-05-31T02:45:28.136Z,1004.46
2018-05-31T02:46:08.524Z,1004.5
2018-05-31T02:46:48.937Z,1004.52
2018-05-31T02:47:29.386Z,1004.57
2018-05-31T02:48:09.759Z,1004.58
2018-05-31T02:48:50.172Z,1004.63
2018-05-31T02:49:30.555Z,1004.61
2018-05-31T02:50:10.962Z,1004.62
2018-05-31T02:50:51.383Z,1004.57
2018-05-31T02:51:31.742Z,1004.56
2018-05-31T02:52:12.144Z,1004.56
2018-05-31T02:52:52.550Z,1004.55
2018-05-31T02:53:32.986Z,1004.54
2018-05-31T02:54:13.364Z,1004.52
2018-05-31T02:54:53.778Z,1004.53
2018-05-31T02:55:34.159Z,1004.54
2018-05-31T02:56:14.539Z,1004.53
2018-05-31T02:56:54.932Z,1004.54
2018-05-31T02:57:35.341Z,1004.51
2018-05-31T02:58:15.730Z,1004.51
2018-05-31T02:58:56.133Z,1004.55
2018-05-31T02:59:36.542Z,1004.5
2018-05-31T03:00:16.979Z,1004.54
2018-05-31T03:00:57.348Z,1004.5
2018-05-31T03:01:37.726Z,1004.5
2018-05-31T03:02:18.194Z,1004.5
2018-05-31T03:02:58.515Z,1004.52
2018-05-31T03:03:38.907Z,1004.5
2018-05-31T03:04:19.353Z,1004.46
2018-05-31T03:04:59.746Z,1004.48
2018-05-31T03:05:40.178Z,1004.45
2018-05-31T03:06:20.579Z,1004.42
2018-05-31T03:11:56.185Z,1004.31
2018-05-31T03:12:36.563Z,1004.33
2018-05-31T03:13:16.955Z,1004.33
2018-05-31T03:13:57.388Z,1004.37
2018-05-31T03:14:37.747Z,1004.36
2018-05-31T03:15:18.166Z,1004.36
2018-05-31T03:15:58.631Z,1004.38
2018-05-31T03:16:38.994Z,1004.42
2018-05-31T03:17:19.377Z,1004.44
2018-05-31T03:17:59.761Z,1004.45
2018-05-31T03:18:40.219Z,1004.42
2018-05-31T03:19:20.673Z,1004.49
2018-05-31T03:20:00.989Z,1004.5
2018-05-31T03:20:41.428Z,1004.47
2018-05-31T03:21:21.804Z,1004.48
2018-05-31T03:22:02.203Z,1004.48
2018-05-31T03:22:42.650Z,1004.49
2018-05-31T03:23:22.992Z,1004.45
2018-05-31T03:25:27.976Z,1004.44
2018-05-31T03:27:50.324Z,1004.53
2018-05-31T03:28:30.705Z,1004.54
2018-05-31T03:29:11.135Z,1004.58
2018-05-31T03:29:51.539Z,1004.59
2018-05-31T03:30:31.953Z,1004.58
2018-05-31T03:31:12.353Z,1004.54
2018-05-31T03:31:52.733Z,1004.56
2018-05-31T03:32:33.116Z,1004.56
2018-05-31T03:34:46.085Z,1004.54
2018-05-31T03:35:26.501Z,1004.49
2018-05-31T03:36:06.879Z,1004.5
2018-05-31T03:36:47.346Z,1004.49
2018-05-31T03:37:27.700Z,1004.48
2018-05-31T03:38:08.135Z,1004.48
2018-05-31T03:38:48.517Z,1004.49
2018-05-31T03:39:28.919Z,1004.51
2018-05-31T03:40:09.315Z,1004.49
2018-05-31T03:40:49.703Z,1004.47
2018-05-31T03:41:30.092Z,1004.48
2018-05-31T03:42:10.491Z,1004.47
2018-05-31T03:42:50.922Z,1004.47
2018-05-31T03:43:31.306Z,1004.46
2018-05-31T03:44:11.695Z,1004.43
2018-05-31T03:44:52.125Z,1004.47
2018-05-31T03:45:32.495Z,1004.48
2018-05-31T03:46:12.878Z,1004.49
2018-05-31T03:46:53.290Z,1004.51
2018-05-31T03:47:43.438Z,1004.53
2018-05-31T03:48:23.830Z,1004.54
2018-05-31T03:49:04.248Z,1004.55
2018-05-31T03:49:44.647Z,1004.54
2018-05-31T03:50:25.043Z,1004.53
2018-05-31T03:51:05.439Z,1004.51
2018-05-31T03:51:45.843Z,1004.49
2018-05-31T03:52:26.301Z,1004.51
2018-05-31T03:53:06.640Z,1004.5
2018-05-31T03:53:47.052Z,1004.49
2018-05-31T03:54:27.468Z,1004.51
2018-05-31T03:55:07.838Z,1004.52
2018-05-31T03:55:48.254Z,1004.47
2018-05-31T03:56:28.661Z,1004.52
2018-05-31T03:57:09.066Z,1004.49
2018-05-31T03:57:49.431Z,1004.49
2018-05-31T03:58:29.818Z,1004.54
2018-05-31T03:59:10.241Z,1004.54
2018-05-31T03:59:50.630Z,1004.52
2018-05-31T04:00:31.021Z,1004.53
2018-05-31T04:01:11.468Z,1004.52
2018-05-31T04:01:51.896Z,1004.49
2018-05-31T04:02:32.310Z,1004.48
2018-05-31T04:03:12.714Z,1004.48
2018-05-31T04:03:53.075Z,1004.49
2018-05-31T04:42:07.023Z,1004.52
2018-05-31T04:42:47.400Z,1004.53
2018-05-31T04:43:27.803Z,1004.55
2018-05-31T04:44:08.171Z,1004.55
2018-05-31T04:44:48.582Z,1004.54
2018-05-31T04:45:28.962Z,1004.49
2018-05-31T04:46:09.368Z,1004.56
2018-05-31T04:46:49.761Z,1004.52
2018-05-31T04:47:30.177Z,1004.54
2018-05-31T04:48:10.543Z,1004.55
2018-05-31T04:48:50.954Z,1004.58
2018-05-31T04:49:31.370Z,1004.56
2018-05-31T04:50:11.744Z,1004.59
2018-05-31T04:50:52.142Z,1004.59
2018-05-31T04:51:32.549Z,1004.64
2018-05-31T04:52:12.960Z,1004.63
2018-05-31T04:52:53.399Z,1004.64
2018-05-31T04:53:33.823Z,1004.64
2018-05-31T04:54:14.162Z,1004.62
2018-05-31T04:54:54.552Z,1004.58
2018-05-31T04:55:34.950Z,1004.61
2018-05-31T04:56:15.359Z,1004.6
2018-05-31T04:56:55.732Z,1004.58
2018-05-31T04:57:36.186Z,1004.57
2018-05-31T04:59:28.923Z,1004.53
2018-05-31T05:00:09.316Z,1004.55
2018-05-31T05:00:49.723Z,1004.53
2018-05-31T05:01:30.109Z,1004.57
2018-05-31T05:02:10.522Z,1004.53
2018-05-31T05:02:50.938Z,1004.56
2018-05-31T05:03:31.353Z,1004.54
2018-05-31T05:04:11.775Z,1004.54
2018-05-31T05:04:52.163Z,1004.56
2018-05-31T05:05:32.528Z,1004.6
2018-05-31T05:06:12.905Z,1004.59
2018-05-31T05:06:53.287Z,1004.63
2018-05-31T05:07:33.754Z,1004.65
2018-05-31T05:08:14.135Z,1004.67
2018-05-31T05:08:54.601Z,1004.69
2018-05-31T05:09:34.983Z,1004.64
2018-05-31T05:10:15.382Z,1004.65
2018-05-31T05:10:56.729Z,1004.6
2018-05-31T05:11:42.998Z,1004.57
2018-05-31T05:12:23.412Z,1004.57
2018-05-31T05:13:03.834Z,1004.56
2018-05-31T05:13:44.198Z,1004.58
2018-05-31T05:14:24.622Z,1004.54
2018-05-31T05:15:04.993Z,1004.53
2018-05-31T05:15:45.398Z,1004.53
2018-05-31T05:16:25.840Z,1004.51
2018-05-31T05:17:06.187Z,1004.56
2018-05-31T05:17:46.588Z,1004.55
2018-05-31T05:18:29.514Z,1004.63
2018-05-31T05:19:09.962Z,1004.61
2018-05-31T05:19:50.340Z,1004.63
2018-05-31T05:20:30.759Z,1004.65
2018-05-31T05:21:11.157Z,1004.67
2018-05-31T05:21:51.583Z,1004.7
2018-05-31T05:22:31.935Z,1004.7
2018-05-31T05:23:12.338Z,1004.74
2018-05-31T05:23:52.768Z,1004.68
2018-05-31T05:24:33.168Z,1004.7
2018-05-31T05:25:13.552Z,1004.65
2018-05-31T05:25:53.931Z,1004.63
2018-05-31T05:26:34.352Z,1004.65
2018-05-31T05:27:14.727Z,1004.61
2018-05-31T05:28:09.705Z,1004.61
2018-05-31T05:29:01.900Z,1004.69
2018-05-31T05:29:49.031Z,1004.73
2018-05-31T05:30:29.452Z,1004.78
2018-05-31T05:31:09.816Z,1004.77
2018-05-31T05:31:57.233Z,1004.86
2018-05-31T05:32:37.613Z,1004.88
2018-05-31T05:33:17.985Z,1004.9
2018-05-31T05:33:58.387Z,1004.9
2018-05-31T05:34:38.833Z,1004.9
2018-05-31T05:35:19.180Z,1004.88
2018-05-31T05:35:59.568Z,1004.9
2018-05-31T05:36:39.972Z,1004.93
2018-05-31T05:37:20.379Z,1004.92
2018-05-31T05:38:00.829Z,1004.91
2018-05-31T05:38:41.206Z,1004.94
2018-05-31T05:39:21.604Z,1004.94
2018-05-31T05:40:02.008Z,1004.99
2018-05-31T05:40:42.417Z,1004.96
2018-05-31T05:41:22.810Z,1004.99
2018-05-31T05:42:03.219Z,1005.03
2018-05-31T05:42:43.609Z,1005.07
2018-05-31T05:43:23.987Z,1005.08
2018-05-31T05:44:04.404Z,1005.09
2018-05-31T05:44:44.840Z,1005.12
2018-05-31T05:45:25.263Z,1005.17
2018-05-31T05:46:05.622Z,1005.15
2018-05-31T05:46:46.058Z,1005.15
2018-05-31T05:47:26.437Z,1005.13
2018-05-31T05:48:06.828Z,1005.16
2018-05-31T05:48:47.287Z,1005.21
2018-05-31T05:49:27.632Z,1005.22
2018-05-31T05:50:08.081Z,1005.15
2018-05-31T05:50:48.453Z,1005.17
2018-05-31T05:51:28.901Z,1005.18
2018-05-31T05:52:09.326Z,1005.16
2018-05-31T05:52:49.736Z,1005.2
2018-05-31T05:53:30.151Z,1005.23
2018-05-31T05:54:10.543Z,1005.23
2018-05-31T05:54:50.944Z,1005.22
2018-05-31T05:55:31.334Z,1005.22
2018-05-31T05:56:11.758Z,1005.24
2018-05-31T05:56:52.160Z,1005.2
2018-05-31T05:57:32.519Z,1005.19
2018-05-31T05:58:12.928Z,1005.22
2018-05-31T05:58:53.362Z,1005.24
2018-05-31T05:59:33.823Z,1005.2
2018-05-31T06:00:14.205Z,1005.22
2018-05-31T06:00:54.592Z,1005.2
2018-05-31T06:01:34.991Z,1005.25
2018-05-31T06:02:15.393Z,1005.26
2018-05-31T06:02:55.808Z,1005.28
2018-05-31T06:03:36.183Z,1005.26
2018-05-31T06:04:16.678Z,1005.31
2018-05-31T06:04:57.029Z,1005.29
2018-05-31T06:05:37.445Z,1005.31
2018-05-31T06:06:17.820Z,1005.3
2018-05-31T06:06:58.234Z,1005.34
2018-05-31T06:07:38.656Z,1005.31
2018-05-31T06:08:19.031Z,1005.29
2018-05-31T06:08:59.457Z,1005.28
2018-05-31T06:09:39.844Z,1005.33
2018-05-31T06:10:20.295Z,1005.31
2018-05-31T06:11:00.647Z,1005.3
2018-05-31T06:11:41.035Z,1005.28
2018-05-31T06:12:21.494Z,1005.31
2018-05-31T06:13:01.820Z,1005.33
2018-05-31T06:13:42.245Z,1005.35
2018-05-31T06:14:22.652Z,1005.34
2018-05-31T06:15:03.044Z,1005.33
2018-05-31T06:15:43.446Z,1005.32
2018-05-31T06:16:23.840Z,1005.32
2018-05-31T06:17:04.194Z,1005.31
2018-05-31T06:17:59.549Z,1005.29
2018-05-31T06:18:39.947Z,1005.26
2018-05-31T06:19:20.373Z,1005.29
2018-05-31T06:20:00.763Z,1005.28
2018-05-31T06:20:41.191Z,1005.24
2018-05-31T06:21:21.634Z,1005.26
2018-05-31T06:22:02.019Z,1005.23
2018-05-31T06:22:42.476Z,1005.28
2018-05-31T06:23:22.882Z,1005.24
2018-05-31T06:24:03.278Z,1005.24
2018-05-31T06:24:43.680Z,1005.28
2018-05-31T06:25:24.121Z,1005.28
2018-05-31T06:26:04.495Z,1005.3
2018-05-31T06:26:44.902Z,1005.27
2018-05-31T06:27:25.302Z,1005.3
2018-05-31T06:28:05.729Z,1005.31
2018-05-31T06:28:46.163Z,1005.31
2018-05-31T06:29:29.341Z,1005.34
2018-05-31T06:30:09.733Z,1005.36
2018-05-31T06:30:50.234Z,1005.36
2018-05-31T06:31:30.613Z,1005.38
2018-05-31T06:32:11.029Z,1005.38
2018-05-31T06:32:51.477Z,1005.34
2018-05-31T06:33:31.987Z,1005.36
2018-05-31T06:34:12.316Z,1005.35
2018-05-31T06:34:52.749Z,1005.32
2018-05-31T06:35:33.169Z,1005.3
2018-05-31T06:36:13.598Z,1005.28
2018-05-31T06:36:54.036Z,1005.28
2018-05-31T06:37:34.479Z,1005.26
2018-05-31T06:38:14.841Z,1005.27
2018-05-31T06:38:55.227Z,1005.24
2018-05-31T06:39:35.630Z,1005.22
2018-05-31T06:40:16.086Z,1005.23
2018-05-31T06:40:56.429Z,1005.23
2018-05-31T06:41:36.929Z,1005.23
2018-05-31T06:42:17.301Z,1005.23
2018-05-31T06:42:57.692Z,1005.25
2018-05-31T06:43:38.082Z,1005.25
2018-05-31T06:44:18.532Z,1005.26
2018-05-31T06:44:58.879Z,1005.29
2018-05-31T06:45:39.293Z,1005.28
2018-05-31T06:46:19.732Z,1005.29
2018-05-31T06:47:00.111Z,1005.3
2018-05-31T06:47:40.517Z,1005.31
2018-05-31T06:48:21.026Z,1005.35
2018-05-31T06:49:01.449Z,1005.34
2018-05-31T06:49:41.838Z,1005.36
2018-05-31T06:50:22.328Z,1005.36
2018-05-31T06:51:02.721Z,1005.39
2018-05-31T06:51:43.155Z,1005.39
2018-05-31T06:52:23.560Z,1005.37
2018-05-31T06:53:04.023Z,1005.37
2018-05-31T06:53:44.404Z,1005.32
2018-05-31T06:54:24.830Z,1005.31
2018-05-31T06:55:05.202Z,1005.28
2018-05-31T06:55:45.617Z,1005.23
2018-05-31T06:56:26.060Z,1005.23
2018-05-31T06:57:06.406Z,1005.21
2018-05-31T06:57:46.881Z,1005.21
2018-05-31T06:58:28.189Z,1005.23
2018-05-31T06:59:07.873Z,1005.22
2018-05-31T06:59:48.507Z,1005.22
2018-05-31T07:00:28.657Z,1005.19
2018-05-31T07:01:09.071Z,1005.24
2018-05-31T07:01:49.495Z,1005.24
2018-05-31T07:02:29.843Z,1005.28
2018-05-31T07:03:10.256Z,1005.28
2018-05-31T07:03:50.608Z,1005.32
2018-05-31T07:04:31.064Z,1005.35
2018-05-31T07:05:11.517Z,1005.4
2018-05-31T07:05:51.942Z,1005.42
2018-05-31T07:06:32.308Z,1005.43
2018-05-31T07:07:12.763Z,1005.49
2018-05-31T07:07:53.182Z,1005.56
2018-05-31T07:08:33.608Z,1005.6
2018-05-31T07:09:14.040Z,1005.6
2018-05-31T07:09:54.780Z,1005.61
2018-05-31T07:10:35.133Z,1005.61
2018-05-31T07:11:15.540Z,1005.63
2018-05-31T07:11:55.906Z,1005.66
2018-05-31T07:12:36.359Z,1005.64
2018-05-31T07:13:16.719Z,1005.65
2018-05-31T07:13:57.201Z,1005.65
2018-05-31T07:14:37.593Z,1005.66
2018-05-31T07:15:17.958Z,1005.64
2018-05-31T07:15:58.397Z,1005.65
2018-05-31T07:16:38.863Z,1005.67
2018-05-31T07:17:19.307Z,1005.66
2018-05-31T07:17:59.693Z,1005.67
2018-05-31T07:18:40.073Z,1005.69
2018-05-31T07:19:20.501Z,1005.7
2018-05-31T07:20:00.904Z,1005.7
2018-05-31T07:20:41.286Z,1005.73
2018-05-31T07:21:21.726Z,1005.73
2018-05-31T07:22:02.131Z,1005.73
2018-05-31T07:22:42.551Z,1005.77
2018-05-31T07:23:22.963Z,1005.74
2018-05-31T07:24:03.322Z,1005.76
2018-05-31T07:24:43.732Z,1005.77
2018-05-31T07:25:24.113Z,1005.77
2018-05-31T07:26:04.529Z,1005.78
2018-05-31T07:26:44.999Z,1005.76
2018-05-31T07:27:39.994Z,1005.77
2018-05-31T07:28:20.446Z,1005.8
2018-05-31T07:29:00.794Z,1005.8
2018-05-31T07:29:41.201Z,1005.8
2018-05-31T07:30:21.664Z,1005.79
2018-05-31T07:31:02.040Z,1005.81
2018-05-31T07:31:42.456Z,1005.78
2018-05-31T07:32:23.014Z,1005.79
2018-05-31T07:33:03.442Z,1005.82
2018-05-31T07:33:43.917Z,1005.81
2018-05-31T07:34:24.239Z,1005.81
2018-05-31T07:35:04.640Z,1005.82
2018-05-31T07:35:45.090Z,1005.8
2018-05-31T07:36:25.462Z,1005.84
2018-05-31T07:37:05.819Z,1005.83
2018-05-31T07:37:46.360Z,1005.8
2018-05-31T07:38:26.705Z,1005.79
2018-05-31T07:39:07.090Z,1005.81
2018-05-31T07:41:21.327Z,1005.77
2018-05-31T07:42:01.456Z,1005.77
2018-05-31T07:42:41.923Z,1005.8
2018-05-31T07:43:22.253Z,1005.82
2018-05-31T07:44:02.653Z,1005.8
2018-05-31T07:44:43.053Z,1005.79
2018-05-31T07:45:23.582Z,1005.81
2018-05-31T07:46:03.865Z,1005.82
2018-05-31T07:46:44.319Z,1005.81
2018-05-31T07:47:24.654Z,1005.81
2018-05-31T07:48:05.119Z,1005.79
2018-05-31T07:48:45.464Z,1005.81
2018-05-31T07:49:25.874Z,1005.78
2018-05-31T07:50:06.292Z,1005.77
2018-05-31T07:50:46.679Z,1005.74
2018-05-31T07:51:27.098Z,1005.73
2018-05-31T07:52:07.498Z,1005.74
2018-05-31T07:52:47.865Z,1005.7
2018-05-31T07:53:28.322Z,1005.71
2018-05-31T07:54:08.700Z,1005.73
2018-05-31T07:54:49.071Z,1005.73
2018-05-31T07:55:29.461Z,1005.71
2018-05-31T07:56:09.861Z,1005.7
2018-05-31T07:56:50.276Z,1005.73
2018-05-31T07:57:30.748Z,1005.73
2018-05-31T07:58:11.195Z,1005.75
2018-05-31T07:58:51.496Z,1005.74
2018-05-31T07:59:31.913Z,1005.74
2018-05-31T08:00:12.312Z,1005.79
2018-05-31T08:00:52.719Z,1005.82
2018-05-31T08:01:33.209Z,1005.83
2018-05-31T08:02:13.587Z,1005.84
2018-05-31T08:02:53.990Z,1005.85
2018-05-31T08:03:34.450Z,1005.87
2018-05-31T08:04:14.826Z,1005.9
2018-05-31T08:04:55.192Z,1005.86
2018-05-31T08:05:35.747Z,1005.85
2018-05-31T08:06:16.099Z,1005.89
2018-05-31T08:06:56.520Z,1005.87
2018-05-31T08:07:37.158Z,1005.9
2018-05-31T08:08:18.048Z,1005.89
2018-05-31T08:08:58.275Z,1005.89
2018-05-31T08:09:38.861Z,1005.88
2018-05-31T08:10:19.343Z,1005.91
2018-05-31T08:10:59.711Z,1005.93
2018-05-31T08:11:40.114Z,1005.92
2018-05-31T08:12:20.482Z,1005.91
2018-05-31T08:13:00.916Z,1005.87
2018-05-31T08:13:41.289Z,1005.85
2018-05-31T08:14:28.493Z,1005.89
2018-05-31T08:15:08.877Z,1005.88
2018-05-31T08:15:49.267Z,1005.85
2018-05-31T08:16:29.633Z,1005.86
2018-05-31T08:17:10.063Z,1005.85
2018-05-31T08:17:50.468Z,1005.86
2018-05-31T08:18:30.822Z,1005.86
2018-05-31T08:19:11.227Z,1005.89
2018-05-31T08:19:51.664Z,1005.87
2018-05-31T08:20:32.080Z,1005.83
2018-05-31T08:21:12.464Z,1005.87
2018-05-31T08:21:52.870Z,1005.87
2018-05-31T08:22:33.275Z,1005.82
2018-05-31T08:23:13.666Z,1005.86
2018-05-31T08:23:54.057Z,1005.81
2018-05-31T08:24:34.513Z,1005.82
2018-05-31T08:25:14.917Z,1005.82
2018-05-31T08:25:55.296Z,1005.83
2018-05-31T08:26:35.805Z,1005.83
2018-05-31T08:27:16.202Z,1005.8
2018-05-31T08:27:56.594Z,1005.85
2018-05-31T08:28:36.962Z,1005.84
2018-05-31T08:29:17.371Z,1005.83
2018-05-31T08:29:57.803Z,1005.87
2018-05-31T08:30:38.180Z,1005.86
2018-05-31T08:31:18.623Z,1005.85
2018-05-31T08:32:05.752Z,1005.88
2018-05-31T08:32:46.150Z,1005.9
2018-05-31T08:33:26.554Z,1005.89
2018-05-31T08:34:06.951Z,1005.88
2018-05-31T08:34:47.409Z,1005.91
2018-05-31T08:35:27.759Z,1005.93
2018-05-31T08:36:08.163Z,1005.96
2018-05-31T08:36:48.544Z,1005.98
2018-05-31T08:37:28.982Z,1005.98
2018-05-31T08:38:09.359Z,1006.03
2018-05-31T08:38:49.878Z,1006.06
2018-05-31T08:39:30.194Z,1006.06
2018-05-31T08:40:10.611Z,1006.05
2018-05-31T08:40:51.126Z,1006.03
2018-05-31T08:41:31.747Z,1006.09
2018-05-31T08:42:13.247Z,1006.09
2018-05-31T08:42:52.966Z,1006.12
2018-05-31T08:43:34.018Z,1006.08
2018-05-31T08:44:14.561Z,1006.17
2018-05-31T08:44:55.452Z,1006.11
2018-05-31T08:45:36.271Z,1006.12
2018-05-31T08:46:17.186Z,1006.09
2018-05-31T08:46:58.335Z,1006.13
2018-05-31T08:47:39.181Z,1006.15
2018-05-31T08:48:19.066Z,1006.12
2018-05-31T08:48:59.710Z,1006.15
2018-05-31T08:49:40.310Z,1006.14
2018-05-31T08:50:21.690Z,1006.17
2018-05-31T08:51:01.548Z,1006.15
2018-05-31T08:53:47.898Z,1006.21
2018-05-31T08:54:29.588Z,1006.25
2018-05-31T08:55:09.588Z,1006.21
2018-05-31T08:55:50.010Z,1006.25
2018-05-31T08:56:31.582Z,1006.25
2018-05-31T08:57:12.737Z,1006.24
2018-05-31T08:58:06.881Z,1006.26
2018-05-31T08:58:48.070Z,1006.24
2018-05-31T08:59:28.403Z,1006.23
2018-05-31T09:00:09.161Z,1006.23
2018-05-31T09:00:50.286Z,1006.24
2018-05-31T09:01:31.589Z,1006.2
2018-05-31T09:02:12.830Z,1006.25
2018-05-31T09:02:52.373Z,1006.25
2018-05-31T09:03:33.031Z,1006.23
2018-05-31T09:04:14.006Z,1006.22
2018-05-31T09:04:55.198Z,1006.22
2018-05-31T09:05:36.059Z,1006.26
2018-05-31T09:06:17.122Z,1006.28
2018-05-31T09:06:58.590Z,1006.3
2018-05-31T09:07:38.618Z,1006.28
2018-05-31T09:08:20.084Z,1006.3
2018-05-31T09:09:00.312Z,1006.27
2018-05-31T09:09:40.924Z,1006.28
2018-05-31T09:10:22.592Z,1006.27